Flight Track Log - Related Links

Times and Time Zones

All times are in EST time to prevent confusion due to time zone crossing. See the N589H flight status page for this flight to view local times or setup timezone preferences in your user account.

Time Position Orientation Groundspeed Altitude Reporting Facility
EST Latitude Longitude Course Direction KTS km/h meters Rate Location/Type
Thu 04:32:00 25.3429 -77.7711 318° Northwest  Level Estimated
Thu 04:33:23 25.1092 -77.4761 318° Northwest 199 369 1,158  Level Miami Center
Thu 04:34:21 25.1508 -77.5200 316° Northwest 194 359 1,829 655 Climbing Miami Center
Thu 04:35:00 25.5250 -77.9548 317° Northwest  Level Estimated
Thu 04:35:23 25.1861 -77.5569 317° Northwest 194 359 2,469  Level Miami Center
Thu 04:36:00 25.5854 -78.0164 317° Northwest  Level FlightAware Approximate
Thu 04:36:21 25.2278 -77.5986 318° Northwest 194 359 3,018  Level Miami Center
Thu 04:37:21 25.2778 -77.6494 317° Northwest 207 383 3,719 625 Climbing Miami Center
Thu 04:38:24 25.3256 -77.6981 317° Northwest 218 404 4,298 488 Climbing Miami Center
Thu 04:39:21 25.3733 -77.7489 316° Northwest 228 422 4,694 418 Climbing Miami Center
Thu 04:40:22 25.4231 -77.7975 319° Northwest 233 431 5,121 360 Climbing Miami Center
Thu 04:41:23 25.4731 -77.8508 316° Northwest 233 431 5,425 277 Climbing Miami Center
Thu 04:42:21 25.5289 -77.9089 317° Northwest 254 470 5,669 305 Climbing Miami Center
Thu 04:43:23 25.5872 -77.9669 318° Northwest 268 496 6,035 283 Climbing Miami Center
Thu 04:44:24 25.6431 -78.0275 316° Northwest 273 505 6,248 248 Climbing Miami Center
Thu 04:45:21 25.7011 -78.0881 317° Northwest 278 515 6,523 198 Climbing Miami Center
Thu 04:46:24 25.7675 -78.1533 318° Northwest 292 541 6,645 91 Climbing Miami Center
Thu 04:47:21 25.8314 -78.2233 315° West 307 568 6,706 31 Climbing Miami Center
Thu 04:48:21 25.9039 -78.3003 316° Northwest 328 607 6,706  Level Miami Center
Thu 04:49:21 25.9703 -78.3636 319° Northwest 342 634 6,706  Level Miami Center
Thu 04:50:21 26.0467 -78.4408 318° Northwest 353 653 6,706  Level Miami Center
Thu 04:51:24 26.1211 -78.5181 317° Northwest 358 663 6,706  Level Miami Center
Thu 04:52:22 26.1889 -78.6047 311° West 364 674 6,706  Level Miami Center
Thu 04:53:21 26.2694 -78.6800 320° Northwest 371 687 6,706  Level Miami Center
Thu 04:54:24 26.3439 -78.7553 318° Northwest 371 687 6,706 285 Level Miami Center
Thu 04:55:23 26.4139 -78.8308 316° Northwest 366 678 7,285 313 Climbing Miami Center
Thu 04:56:21 26.4839 -78.9039 317° Northwest 358 663 7,315 15 Climbing Miami Center
Thu 04:57:24 26.5578 -78.9842 316° Northwest 358 663 7,315  Level Miami Center
Thu 04:58:23 26.6361 -79.0644 318° Northwest 369 684 7,315  Level Miami Center
Thu 04:59:21 26.7142 -79.1497 316° Northwest 376 697 7,315  Level Miami Center
Thu 05:00:21 26.7922 -79.2303 317° Northwest 382 708 7,315  Level Miami Center
Thu 05:01:24 26.8783 -79.3231 316° Northwest 382 708 7,315  Level Miami Center
Thu 05:02:23 26.9564 -79.4061 317° Northwest 381 705 7,315 -250 Level Miami Center
Thu 05:03:21 27.0322 -79.4825 318° Northwest 381 705 6,828 -543 Descending Miami Center
Thu 05:04:21 27.0917 -79.5492 315° West 352 652 6,248 -686 Descending Miami Center
Thu 05:05:21 27.1633 -79.6231 317° Northwest 318 589 5,456 -792 Descending Miami Center
Thu 05:06:21 27.2269 -79.6853 319° Northwest 308 570 4,663 -758 Descending Miami Center
Thu 05:07:24 27.2906 -79.7408 322° Northwest 296 549 3,901 -714 Descending Miami Center
Thu 05:08:24 27.3439 -79.7911 320° Northwest 282 523 3,200 -738 Descending Miami Center
Thu 05:09:23 27.4033 -79.8442 322° Northwest 282 523 2,438 -750 Descending Miami Center
Thu 05:10:21 27.4667 -79.9044 320° Northwest 277 513 1,737 -396 Descending Miami Center
Thu 05:11:23 27.5242 -79.9575 321° Northwest 272 504 1,646 -107 Descending Miami Center
Thu 05:12:21 27.5814 -80.0106 321° Northwest 267 494 1,524 -62 Descending Miami Center
Thu 05:13:21 27.6325 -80.0564 322° Northwest 267 494 1,524  Level Miami Center
Thu 05:14:22 27.6939 -80.1167 319° Northwest 267 494 1,524  Level Miami Center
Thu 05:15:21 27.7533 -80.1678 323° Northwest 267 494 1,524  Level Miami Center
Thu 05:16:23 27.8083 -80.2208 320° Northwest 267 494 1,524  Level Miami Center
Thu 05:17:22 27.8636 -80.2719 321° Northwest 255 472 1,524 -94 Level Miami Center
Thu 05:19:37 27.9833 -80.3833 321° Northwest 217 402 1,219 -261 Descending Orlando TRACON
Thu 05:20:31 28.0167 -80.4167 319° Northwest 216 401 701 -321 Descending Orlando TRACON
Thu 05:21:31 28.0667 -80.4333 344° North 141 261 610 -122 Descending Orlando TRACON
Thu 05:22:31 28.1000 -80.4500 336° Northwest 175 323 457 -76 Descending Orlando TRACON
Thu 05:23:31 28.1000 -80.5000 270° West 176 327 457  Level Orlando TRACON
Thu 05:24:31 28.1000 -80.5500 270° West 148 274 457 -137 Level Orlando TRACON
Thu 05:25:31 28.1000 -80.6000 270° West 138 256 183 -274 Descending Orlando TRACON
Thu 05:27:00 28.1000 -80.6333 294° West  Level FlightAware Approximate
Thu 05:34:00 28.1028 -80.6453 294° West  Level Estimated
Thu 05:35:00 28.1028 -80.6453 294° West  Level Estimated
Thu 05:36:00 28.1028 -80.6453 294° West  Level Estimated
Thu 05:37:00 28.1028 -80.6453 294° West  Level Estimated

Login

Don't have an account? Register now (free) for customized features, flight alerts, and more!